Latest Weather Observations for Young

IDN60801

Issued at 6:32 pm EST Wednesday 28 June 2017 (issued every 30 minutes, with the page automatically refreshed every 10 minutes)

About weather observations | Map of weather stations | Latest weather observations for NSW | Other Formats
Station Details ID: 073138 Name: YOUNG AIRPORT Lat: -34.25 Lon: 148.25 Height: 379.6 m
Data from the previous 72 hours. | See also: Recent months at Young
Date/Time
EST
Temp
°C
App
Temp
°C
Dew
Point
°C
Rel
Hum
%
Delta-T
°C
Wind Press
QNH
hPa
Press
MSL
hPa
Rain since
9am
mm
Dir  Spd
km/h
Gust
km/h
Spd
kts
Gust
kts
28/06:30pm 2.7 -0.1 2.1 96 0.2 S 6 7 3 4 1022.5 1023.1 0.0
28/06:00pm 2.5 -0.7 0.6 87 0.7 WSW 7 9 4 5 1022.3 1022.9 0.0
28/05:30pm 5.1 2.8 2.6 84 1.0 W 4 6 2 3 1022.3 1022.9 0.0
28/05:00pm 8.4 5.9 4.0 74 1.9 W 6 7 3 4 1022.0 1022.6 0.0
28/04:30pm 10.6 8.2 4.1 64 3.0 W 6 11 3 6 1022.0 1022.6 0.0
28/04:00pm 11.9 9.3 4.2 59 3.5 WSW 7 11 4 6 1022.0 1022.6 0.0
28/03:30pm 12.1 9.6 4.6 60 3.5 WNW 7 9 4 5 1021.9 1022.5 0.0
28/03:00pm 11.1 8.3 5.2 67 2.7 NW 9 11 5 6 1021.9 1022.5 0.0
28/02:30pm 11.1 8.9 6.0 71 2.4 NNW 7 13 4 7 1022.0 1022.6 0.0
28/02:00pm 12.0 9.7 7.3 73 2.3 N 9 13 5 7 1022.1 1022.7 0.0
28/01:30pm 10.4 8.3 6.5 77 1.9 N 7 11 4 6 1022.3 1022.9 0.0
28/01:00pm 9.6 7.7 6.5 81 1.5 N 6 7 3 4 1022.4 1023.0 0.0
28/12:30pm 9.7 8.5 6.6 81 1.5 NNW 2 6 1 3 1022.7 1023.3 0.0
28/12:00pm 8.8 7.2 6.3 84 1.2 NNE 4 7 2 4 1023.1 1023.6 0.0
28/11:30am 8.3 7.5 6.3 87 0.9 CALM 0 0 0 0 1023.5 1024.1 0.0
28/11:00am 7.3 6.5 6.6 95 0.3 CALM 0 0 0 0 1024.0 1024.6 0.0
28/10:30am 6.4 5.6 6.3 99 0.0 CALM 0 0 0 0 1024.6 1025.2 0.0
28/10:00am 5.3 4.2 5.2 99 0.0 CALM 0 0 0 0 1024.2 1024.8 0.0
28/09:30am 4.6 3.4 4.5 99 0.0 CALM 0 0 0 0 1024.2 1024.8 0.0
28/09:00am 4.0 2.3 3.9 99 0.0 SW 2 6 1 3 1023.7 1024.3 0.0
28/08:30am 3.0 0.3 2.9 99 0.0 SSW 6 7 3 4 1023.3 1023.9 0.0
28/08:00am 2.3 -0.5 2.2 99 0.0 SSW 6 7 3 4 1023.3 1023.9 0.0
28/07:30am 1.7 -1.2 1.6 99 0.0 SSW 6 6 3 3 1023.2 1023.8 0.0
28/07:00am 1.1 -1.9 1.0 99 0.0 S 6 7 3 4 1023.1 1023.6 0.0
28/06:30am 0.7 -2.3 0.6 99 0.0 SSW 6 7 3 4 1023.1 1023.6 0.0
28/06:00am 0.5 -2.6 0.4 99 0.0 SSW 6 7 3 4 1022.7 1023.3 0.0
28/05:30am 0.1 -1.9 0.0 99 0.0 CALM 0 6 0 3 1022.5 1023.1 0.0
28/05:00am 1.2 -1.8 1.1 99 0.0 SW 6 7 3 4 1022.6 1023.2 0.0
28/04:30am 0.9 -2.1 0.8 99 0.0 SSW 6 7 3 4 1022.2 1022.8 0.0
28/04:00am 1.0 -2.0 0.9 99 0.0 SSW 6 7 3 4 1022.6 1023.2 0.0
28/03:30am 0.8 -2.4 0.7 99 0.0 SSW 7 9 4 5 1022.6 1023.2 0.0
28/03:00am 0.9 -2.1 0.8 99 0.0 WSW 6 7 3 4 1023.3 1023.9 0.0
28/02:30am 0.6 -2.6 0.5 99 0.0 SSW 7 7 4 4 1022.8 1023.4 0.0
28/02:00am 0.0 -2.4 -0.1 99 0.0 SE 2 7 1 4 1022.8 1023.4 0.0
28/01:30am 0.5 -2.6 0.4 99 0.0 SW 6 7 3 4 1022.9 1023.5 0.0
28/01:00am 0.4 -1.5 0.3 99 0.0 CALM 0 0 0 0 1022.5 1023.1 0.0
28/12:30am 0.1 -3.0 0.0 99 0.0 SSW 6 7 3 4 1022.5 1023.1 0.0
28/12:00am 1.4 -1.1 1.3 99 0.0 S 4 6 2 3 1022.9 1023.5 0.0
 
Date/Time
EST
Temp
°C
App
Temp
°C
Dew
Point
°C
Rel
Hum
%
Delta-T
°C
Wind Press
QNH
hPa
Press
MSL
hPa
Rain since
9am
mm
Dir  Spd
km/h
Gust
km/h
Spd
kts
Gust
kts
27/11:30pm 1.9 -0.2 1.8 99 0.0 S 2 6 1 3 1023.2 1023.8 0.0
27/11:00pm 2.9 1.4 2.8 99 0.0 CALM 0 4 0 2 1023.5 1024.1 0.0
27/10:30pm 3.8 1.0 3.4 97 0.2 WSW 7 9 4 5 1023.9 1024.5 0.0
27/10:00pm 4.8 2.9 4.7 99 0.0 SSW 4 7 2 4 1023.5 1024.1 0.0
27/09:30pm 5.2 2.9 4.8 97 0.2 SW 6 9 3 5 1023.4 1024.0 0.0
27/09:00pm 5.5 2.8 5.4 99 0.0 SW 9 11 5 6 1023.2 1023.8 0.0
27/08:30pm 4.9 2.0 4.8 99 0.0 SW 9 11 5 6 1023.3 1023.9 0.0
27/08:00pm 5.2 2.8 5.1 99 0.0 SSW 7 9 4 5 1023.4 1024.0 0.0
27/07:30pm 4.9 2.0 4.5 97 0.2 SW 9 9 5 5 1023.5 1024.1 0.0
27/07:00pm 6.4 4.1 5.5 94 0.4 SW 7 9 4 5 1023.5 1024.1 0.0
27/06:30pm 6.9 5.5 5.7 92 0.5 SSW 2 6 1 3 1023.5 1024.1 0.0
27/06:00pm 6.9 4.7 5.4 90 0.7 SW 6 7 3 4 1023.4 1024.0 0.0
27/05:30pm 7.8 5.5 5.6 86 1.0 S 7 7 4 4 1023.3 1023.9 0.0
27/05:00pm 8.8 6.2 6.3 84 1.2 S 9 11 5 6 1023.2 1023.8 0.0
27/04:30pm 10.1 7.2 6.3 77 1.8 SSW 11 13 6 7 1022.9 1023.5 0.0
27/04:00pm 10.8 8.2 6.2 73 2.2 S 9 11 5 6 1022.7 1023.3 0.0
27/03:30pm 11.1 8.8 4.6 64 3.0 ESE 6 9 3 5 1022.7 1023.3 0.0
27/03:00pm 11.1 8.8 4.8 65 2.9 SE 6 7 3 4 1022.7 1023.3 0.0
27/02:30pm 10.9 9.0 5.0 67 2.7 ESE 4 7 2 4 1022.9 1023.5 0.0
27/02:00pm 11.0 8.6 5.1 67 2.7 ESE 7 11 4 6 1022.9 1023.5 0.0
27/01:30pm 10.8 7.9 4.7 66 2.8 ESE 9 13 5 7 1023.4 1024.0 0.0
27/01:00pm 10.6 7.8 5.2 69 2.5 E 9 13 5 7 1023.4 1024.0 0.0
27/12:30pm 11.0 8.5 6.4 73 2.2 SE 9 13 5 7 1024.0 1024.6 0.0
27/12:00pm 8.9 6.7 6.3 84 1.2 SSE 7 11 4 6 1025.1 1025.7 0.0
27/11:30am 7.9 6.0 6.5 91 0.7 SW 6 7 3 4 1025.7 1026.4 0.0
27/11:00am 7.0 5.8 6.6 97 0.2 S 2 6 1 3 1026.0 1026.6 0.0
27/10:30am 6.0 3.7 5.9 99 0.0 SSW 7 9 4 5 1026.1 1026.7 0.0
27/10:00am 4.4 2.0 4.3 99 0.0 WSW 6 7 3 4 1026.1 1026.7 0.0
27/09:30am 2.6 -0.3 2.5 99 0.0 SW 7 9 4 5 1025.5 1026.2 0.0
27/09:00am 1.0 -2.0 0.9 99 0.0 S 6 7 3 4 1026.0 1026.6 0.0
27/08:30am -0.3 -3.7 -0.4 99 0.0 S 7 9 4 5 1025.9 1026.5 0.0
27/08:00am -1.4 -4.9 -1.5 99 0.0 S 7 11 4 6 1026.0 1026.6 0.0
27/07:30am -2.2 -5.6 -2.3 99 -0.1 S 6 9 3 5 1025.5 1026.2 0.0
27/07:00am -2.9 -6.6 -3.0 99 -0.1 SSW 7 9 4 5 1025.4 1026.1 0.0
27/06:30am -3.0 -6.5 -3.1 99 -0.1 SSW 6 7 3 4 1025.3 1025.9 0.0
27/06:00am -3.6 -7.4 -3.7 99 -0.1 SSW 7 9 4 5 1025.5 1026.2 0.0
27/05:30am -2.7 -6.8 -2.8 99 -0.1 SSW 9 9 5 5 1025.4 1026.1 0.0
27/05:00am -2.4 -6.1 -2.5 99 -0.1 S 7 9 4 5 1025.4 1026.1 0.0
27/04:30am -3.4 -7.6 -3.5 99 -0.1 S 9 11 5 6 1025.3 1025.9 0.0
27/04:00am -3.4 -5.8 -3.5 99 -0.1 CALM 0 0 0 0 1025.3 1025.9 0.0
27/03:30am -3.2 -6.8 -3.3 99 -0.1 SSW 6 7 3 4 1025.4 1026.1 0.0
27/03:00am -3.1 -6.9 -3.4 98 0.0 S 7 9 4 5 1025.2 1025.8 0.0
27/02:30am -2.9 -6.6 -3.0 99 -0.1 SW 7 7 4 4 1025.3 1025.9 0.0
27/02:00am -2.4 -5.9 -2.5 99 -0.1 S 6 7 3 4 1025.3 1025.9 0.0
27/01:30am -2.4 -5.9 -2.5 99 -0.1 S 6 9 3 5 1025.1 1025.7 0.0
27/01:00am -2.7 -6.4 -3.0 98 0.0 SSW 7 9 4 5 1025.3 1025.9 0.0
27/12:30am -2.2 -5.6 -2.3 99 -0.1 SSE 6 7 3 4 1025.4 1026.1 0.0
27/12:00am -1.8 -4.4 -1.9 99 0.0 WSW 2 6 1 3 1025.6 1026.3 0.0
 
Date/Time
EST
Temp
°C
App
Temp
°C
Dew
Point
°C
Rel
Hum
%
Delta-T
°C
Wind Press
QNH
hPa
Press
MSL
hPa
Rain since
9am
mm
Dir  Spd
km/h
Gust
km/h
Spd
kts
Gust
kts
26/11:30pm -1.6 -5.5 -1.7 99 0.0 S 9 9 5 5 1025.4 1026.1 0.0
26/11:00pm -1.3 -4.8 -1.4 99 0.0 S 7 11 4 6 1025.4 1026.1 0.0
26/10:30pm -0.7 -3.9 -0.8 99 0.0 SW 6 7 3 4 1025.4 1026.1 0.0
26/10:00pm -0.2 -3.6 -0.5 98 0.1 S 7 9 4 5 1024.9 1025.5 0.0
26/09:30pm 1.5 -1.6 1.4 99 0.0 SW 7 9 4 5 1025.0 1025.6 0.0
26/09:00pm 0.7 -2.6 0.1 96 0.2 S 7 9 4 5 1025.0 1025.6 0.0
26/08:30pm 1.8 -1.2 0.9 94 0.3 SSW 6 7 3 4 1024.8 1025.4 0.0
26/08:00pm 3.9 1.1 3.0 94 0.4 SSW 7 7 4 4 1024.7 1025.3 0.0
26/07:30pm 5.2 3.4 3.2 87 0.8 S 2 7 1 4 1024.5 1025.1 0.0
26/07:00pm 7.5 5.2 5.0 84 1.1 S 6 7 3 4 1024.6 1025.2 0.0
26/06:30pm 8.0 7.0 5.5 84 1.1 CALM 0 6 0 3 1024.5 1025.1 0.0
26/06:00pm 7.7 6.2 4.8 82 1.3 W 2 6 1 3 1024.2 1024.8 0.0
26/05:30pm 8.4 6.1 5.0 79 1.5 S 6 15 3 8 1023.8 1024.4 0.0
26/05:00pm 9.0 6.6 4.2 72 2.1 W 6 7 3 4 1023.5 1024.1 0.0
26/04:30pm 11.3 8.9 5.2 66 2.9 WSW 7 11 4 6 1023.1 1023.6 0.0
26/04:00pm 12.0 8.3 4.5 60 3.5 SW 13 17 7 9 1022.8 1023.4 0.0
26/03:30pm 12.3 9.5 5.2 62 3.4 SSW 9 13 5 7 1022.9 1023.5 0.0
26/03:00pm 12.1 8.4 4.6 60 3.5 SW 13 17 7 9 1022.8 1023.4 0.0
26/02:30pm 12.7 9.3 4.2 56 3.9 WSW 11 17 6 9 1022.8 1023.4 0.0
26/02:00pm 12.2 8.8 4.2 58 3.7 WSW 11 19 6 10 1022.8 1023.4 0.0
26/01:30pm 13.3 9.2 4.5 55 4.1 WSW 15 20 8 11 1022.8 1023.4 0.0
26/01:00pm 13.3 10.0 4.5 55 4.1 SW 11 20 6 11 1022.8 1023.4 0.0
26/12:30pm 12.8 9.0 3.7 54 4.2 SW 13 20 7 11 1023.1 1023.6 0.0
26/12:00pm 12.7 8.9 3.9 55 4.0 SSW 13 22 7 12 1023.3 1023.9 0.0
26/11:30am 11.9 8.1 3.7 57 3.7 SW 13 20 7 11 1023.5 1024.1 0.0
26/11:00am 12.1 8.6 5.5 64 3.1 SW 13 19 7 10 1023.7 1024.3 0.0
26/10:30am 10.6 9.8 6.7 77 1.9 CALM 0 0 0 0 1023.8 1024.4 0.0
26/10:00am 8.3 7.4 5.9 85 1.1 CALM 0 0 0 0 1023.9 1024.5 0.0
26/09:30am 5.1 3.9 4.7 97 0.2 CALM 0 0 0 0 1023.8 1024.4 0.0
26/09:00am 1.5 -0.6 1.4 99 0.0 SSW 2 6 1 3 1023.6 1024.2 0.0
26/08:30am -0.7 -3.9 -0.8 99 0.0 SSW 6 6 3 3 1023.2 1023.8 0.0
26/08:00am -1.8 -5.2 -1.9 99 0.0 S 6 9 3 5 1022.8 1023.4 0.0
26/07:30am -3.1 -6.8 -3.2 99 -0.1 SSW 7 9 4 5 1022.4 1023.0 0.0
26/07:00am -3.0 -6.7 -3.1 99 -0.1 SSW 7 9 4 5 1022.0 1022.6 0.0
26/06:30am -3.6 -7.4 -3.7 99 -0.1 S 7 9 4 5 1021.8 1022.4 0.0
26/06:00am -3.7 -7.3 -3.8 99 -0.1 SSW 6 7 3 4 1021.5 1022.1 0.0
26/05:30am -3.1 -6.6 -3.2 99 -0.1 SW 6 7 3 4 1021.1 1021.7 0.0
26/05:00am -2.8 -6.5 -2.9 99 -0.1 SSW 7 9 4 5 1020.9 1021.4 0.0
26/04:30am -2.8 -6.5 -2.9 99 -0.1 SSW 7 9 4 5 1020.8 1021.3 0.0
26/04:00am -3.3 -7.5 -3.6 98 0.0 S 9 11 5 6 1020.6 1021.1 0.0
26/03:30am -3.0 -5.4 -3.3 98 0.0 CALM 0 6 0 3 1020.6 1021.1 0.0
26/03:00am -2.5 -6.0 -2.6 99 -0.1 SSW 6 7 3 4 1020.5 1021.0 0.0
26/02:30am -2.3 -5.7 -2.4 99 -0.1 S 6 7 3 4 1020.3 1020.8 0.0
26/02:00am -2.0 -5.4 -2.1 99 -0.1 SSW 6 6 3 3 1020.0 1020.6 0.0
26/01:30am -1.7 -3.9 -1.8 99 0.0 CALM 0 0 0 0 1019.7 1020.3 0.0
26/01:00am -1.3 -4.6 -1.4 99 0.0 SW 6 7 3 4 1019.7 1020.3 0.0
26/12:30am -0.9 -4.4 -1.0 99 0.0 SSW 7 9 4 5 1020.0 1020.6 0.0
26/12:00am -0.6 -3.4 -0.7 99 0.0 SSW 4 7 2 4 1020.0 1020.6 0.0
 
Date/Time
EST
Temp
°C
App
Temp
°C
Dew
Point
°C
Rel
Hum
%
Delta-T
°C
Wind Press
QNH
hPa
Press
MSL
hPa
Rain since
9am
mm
Dir  Spd
km/h
Gust
km/h
Spd
kts
Gust
kts
25/11:30pm 0.3 -2.0 0.2 99 0.0 S 2 7 1 4 1020.3 1020.8 0.0
25/11:00pm 0.5 -1.5 0.2 98 0.1 CALM 0 4 0 2 1020.3 1020.8 0.0
25/10:30pm 1.5 -1.4 1.4 99 0.0 S 6 7 3 4 1020.4 1020.9 0.0
25/10:00pm 2.3 -0.8 1.6 95 0.3 WSW 7 7 4 4 1020.0 1020.6 0.0
25/09:30pm 3.4 0.7 2.8 96 0.2 SW 6 7 3 4 1019.9 1020.5 0.0
25/09:00pm 4.1 1.6 3.5 96 0.3 S 6 7 3 4 1019.7 1020.3 0.0
25/08:30pm 4.4 2.6 3.2 92 0.5 SSW 2 6 1 3 1019.6 1020.2 0.0
25/08:00pm 5.2 3.9 4.2 93 0.4 CALM 0 0 0 0 1019.4 1020.0 0.0
25/07:30pm 5.7 4.4 4.2 90 0.7 CALM 0 0 0 0 1019.1 1019.7 0.0
25/07:00pm 6.0 3.9 4.0 87 0.9 WSW 4 7 2 4 1019.0 1019.6 0.0

Other Formats:

Comma delimited format used in spreadsheet applications
http://www.bom.gov.au/fwo/IDN60801/IDN60801.94712.axf

JavaScript Object Notation format (JSON) in row-major order
http://www.bom.gov.au/fwo/IDN60801/IDN60801.94712.json